Time;durP1;ratioP1;P1;durP2;ratioP2;P2;SDS_P1;SDS_P2;PMS_P1;PMS_P2;Temp;Humidity;BMP_temperature;BMP_pressure;BME280_temperature;BME280_humidity;BME280_pressure;Samples;Min_cycle;Max_cycle;Signal;HPM_P1;HPM_P2
2023/03/30 00:01:01;;;;;;;10.50;5.45;;;;;;;6.07;90.11;99172.94;4484630;32;20088;-66
2023/03/30 00:03:29;;;;;;;12.88;5.90;;;;;;;6.09;91.23;99168.47;4485085;31;20127;-67
2023/03/30 00:06:03;;;;;;;12.88;6.50;;;;;;;6.09;91.39;99168.47;4483579;32;20119;-67
2023/03/30 00:08:32;;;;;;;14.30;6.10;;;;;;;6.09;91.97;99168.47;4484879;31;20427;-67
2023/03/30 00:11:00;;;;;;;10.75;6.00;;;;;;;6.11;92.30;99166.59;4484854;32;20157;-67
2023/03/30 00:13:28;;;;;;;11.15;5.70;;;;;;;6.11;92.82;99158.78;4484811;31;20146;-67
2023/03/30 00:15:56;;;;;;;15.13;6.90;;;;;;;6.13;93.39;99153.47;4484795;32;20475;-67
2023/03/30 00:18:23;;;;;;;11.98;5.97;;;;;;;6.10;94.23;99151.06;4484996;31;20439;-67
2023/03/30 00:20:51;;;;;;;11.52;5.85;;;;;;;6.09;95.47;99149.44;4484431;31;20117;-67
2023/03/30 00:23:19;;;;;;;11.45;6.53;;;;;;;6.02;95.91;99151.56;4484713;31;20442;-67
2023/03/30 00:25:46;;;;;;;12.88;6.50;;;;;;;6.08;94.38;99143.38;4484651;31;20624;-67
2023/03/30 00:28:14;;;;;;;10.38;5.80;;;;;;;6.07;93.94;99144.31;4484371;31;20131;-67
2023/03/30 00:30:42;;;;;;;9.95;5.53;;;;;;;6.08;94.50;99148.56;4484344;31;20100;-67
2023/03/30 00:33:09;;;;;;;15.70;6.35;;;;;;;6.11;93.73;99143.19;4484902;31;20434;-67
2023/03/30 00:35:37;;;;;;;12.00;5.80;;;;;;;6.09;93.35;99145.06;4484522;31;20096;-67
2023/03/30 00:38:04;;;;;;;11.65;6.55;;;;;;;6.13;92.91;99141.31;4484958;32;20451;-67
2023/03/30 00:40:33;;;;;;;11.18;6.15;;;;;;;6.21;92.57;99139.03;4484528;31;20133;-67
2023/03/30 00:43:05;;;;;;;9.88;5.60;;;;;;;6.23;91.71;99138.94;4484394;32;20488;-67
2023/03/30 00:45:34;;;;;;;11.40;6.18;;;;;;;6.32;89.15;99133.13;4484506;31;20501;-67
2023/03/30 00:48:01;;;;;;;13.62;6.50;;;;;;;6.28;88.03;99136.03;4484479;32;20168;-67
2023/03/30 00:50:42;;;;;;;12.05;6.25;;;;;;;6.23;88.62;99133.75;4484345;31;20165;-67
2023/03/30 00:53:16;;;;;;;11.90;6.15;;;;;;;6.32;87.89;99129.72;4483068;32;20159;-67
2023/03/30 00:55:45;;;;;;;15.15;6.78;;;;;;;6.38;87.58;99127.53;4470458;32;20477;-67
2023/03/30 00:58:14;;;;;;;15.55;6.18;;;;;;;6.26;88.97;99130.13;4484323;31;20112;-67
2023/03/30 01:00:45;;;;;;;12.05;6.30;;;;;;;6.36;89.09;99123.38;4482934;32;20552;-67
2023/03/30 01:03:23;;;;;;;12.40;7.00;;;;;;;6.27;90.75;99121.34;4484237;31;20111;-66
2023/03/30 01:05:51;;;;;;;15.10;6.75;;;;;;;6.26;90.80;99110.13;4484160;31;20080;-67
2023/03/30 01:08:19;;;;;;;15.68;6.68;;;;;;;6.19;91.03;99104.50;4482928;32;20101;-67
2023/03/30 01:10:46;;;;;;;12.18;6.55;;;;;;;5.91;91.39;99104.59;4482951;32;20192;-66
2023/03/30 01:13:13;;;;;;;13.25;6.43;;;;;;;6.01;91.26;99095.28;4484050;31;20114;-66
2023/03/30 01:16:21;;;;;;;13.55;6.60;;;;;;;6.06;90.65;99097.59;4484150;31;20105;-66
2023/03/30 01:19:25;;;;;;;14.52;7.15;;;;;;;6.07;90.12;99086.25;4435057;32;20113;-66
2023/03/30 01:22:05;;;;;;;13.50;6.17;;;;;;;5.97;90.71;99086.03;4434942;32;20194;-67
2023/03/30 01:25:07;;;;;;;17.08;6.72;;;;;;;5.92;90.98;99086.31;4434664;32;20101;-66
2023/03/30 01:27:53;;;;;;;18.73;7.68;;;;;;;5.90;91.24;99077.75;4434776;32;20109;-67
2023/03/30 01:30:42;;;;;;;15.10;6.62;;;;;;;5.81;92.51;99067.94;4434582;32;20117;-67
2023/03/30 01:33:20;;;;;;;13.95;6.70;;;;;;;5.76;93.17;99070.84;4434872;32;20187;-66
2023/03/30 01:36:16;;;;;;;12.95;6.10;;;;;;;5.60;94.21;99072.75;4434720;32;20531;-66
2023/03/30 01:39:02;;;;;;;18.00;6.70;;;;;;;5.67;94.13;99066.25;4434678;32;20102;-67
2023/03/30 01:41:43;;;;;;;13.27;5.68;;;;;;;5.69;94.37;99066.97;4436656;32;20259;-67
2023/03/30 01:44:19;;;;;;;12.63;6.10;;;;;;;5.61;94.92;99071.84;4436683;32;20168;-66
2023/03/30 01:46:56;;;;;;;9.05;5.62;;;;;;;5.60;95.15;99064.97;4436685;32;20113;-66
2023/03/30 01:49:31;;;;;;;14.23;5.80;;;;;;;5.60;95.23;99062.38;4436487;32;20097;-67
2023/03/30 01:52:04;;;;;;;13.18;6.18;;;;;;;5.69;94.41;99070.44;4424039;32;20113;-67
2023/03/30 01:54:40;;;;;;;11.12;6.68;;;;;;;5.71;93.23;99065.13;4438228;32;20117;-67
2023/03/30 01:57:12;;;;;;;12.57;5.70;;;;;;;5.64;93.90;99067.28;4484570;32;20155;-67
2023/03/30 01:59:45;;;;;;;12.00;5.37;;;;;;;5.71;93.55;99066.88;4485770;31;20591;-66
2023/03/30 02:02:14;;;;;;;16.30;6.12;;;;;;;5.76;93.68;99055.25;4484526;32;20100;-66
2023/03/30 02:04:44;;;;;;;13.48;7.35;;;;;;;5.61;94.97;99056.25;4484443;32;20130;-66
2023/03/30 02:07:22;;;;;;;12.27;6.20;;;;;;;5.55;96.06;99061.84;4485986;32;20601;-66
2023/03/30 02:09:53;;;;;;;14.63;6.95;;;;;;;5.56;96.51;99058.31;4484371;32;20111;-66
2023/03/30 02:12:21;;;;;;;12.85;6.20;;;;;;;5.41;97.81;99049.72;4484340;32;20247;-66
2023/03/30 02:14:50;;;;;;;14.23;7.70;;;;;;;5.40;98.00;99051.47;4471487;32;20146;-66
2023/03/30 02:17:21;;;;;;;20.52;8.20;;;;;;;5.52;98.24;99049.88;4485740;31;20092;-66
2023/03/30 02:19:50;;;;;;;11.88;6.60;;;;;;;5.55;98.24;99039.28;4485412;31;20483;-66
2023/03/30 02:22:18;;;;;;;14.43;6.20;;;;;;;5.55;97.99;99036.69;4484481;32;20135;-66
2023/03/30 02:24:47;;;;;;;12.50;6.15;;;;;;;5.57;98.47;99037.44;4485295;31;20147;-66
2023/03/30 02:27:16;;;;;;;12.50;5.75;;;;;;;5.54;98.30;99035.03;4484653;32;20449;-66
2023/03/30 02:29:44;;;;;;;9.45;5.50;;;;;;;5.49;98.52;99039.66;4485417;31;20089;-66
2023/03/30 02:32:35;;;;;;;12.82;6.45;;;;;;;5.28;100.00;99036.66;4485680;31;20112;-66
2023/03/30 02:35:23;;;;;;;14.00;6.10;;;;;;;5.33;99.74;99032.03;4421314;32;20209;-66
2023/03/30 02:38:21;;;;;;;9.80;5.35;;;;;;;5.35;99.82;99037.97;4421145;32;20129;-66
2023/03/30 02:41:07;;;;;;;11.55;5.62;;;;;;;5.34;98.74;99044.06;4420949;32;20137;-66
2023/03/30 02:43:42;;;;;;;13.25;5.72;;;;;;;5.37;99.25;99041.28;4421176;32;20105;-67
2023/03/30 02:46:31;;;;;;;8.40;5.30;;;;;;;5.38;98.49;99026.53;4408303;32;20648;-66
2023/03/30 02:49:20;;;;;;;11.18;5.12;;;;;;;5.34;99.21;99033.69;4421068;32;20149;-67
2023/03/30 02:51:51;;;;;;;10.65;5.47;;;;;;;5.41;99.09;99027.19;4421132;32;20614;-66
2023/03/30 02:54:34;;;;;;;17.50;5.68;;;;;;;5.47;98.82;99031.97;4421081;32;20191;-67
2023/03/30 02:57:31;;;;;;;11.57;5.70;;;;;;;5.45;98.91;99025.19;4409434;32;20121;-67
2023/03/30 03:00:07;;;;;;;11.05;5.45;;;;;;;5.48;98.49;99025.84;4421044;32;20127;-66
2023/03/30 03:02:39;;;;;;;15.50;5.47;;;;;;;5.40;98.87;99038.50;4420836;32;20165;-66
2023/03/30 03:05:09;;;;;;;11.75;5.78;;;;;;;5.42;98.40;99040.97;4408532;32;20361;-66
2023/03/30 03:07:38;;;;;;;8.93;5.22;;;;;;;5.48;98.82;99043.19;4408752;32;20118;-66
2023/03/30 03:10:06;;;;;;;9.77;4.30;;;;;;;5.55;99.54;99038.44;4420914;32;20159;-66
2023/03/30 03:12:34;;;;;;;10.18;5.35;;;;;;;5.58;99.44;99038.25;4444766;32;20093;-66
2023/03/30 03:15:04;;;;;;;10.75;5.28;;;;;;;5.62;98.95;99032.75;4481116;32;20125;-67
2023/03/30 03:17:35;;;;;;;11.95;5.05;;;;;;;5.61;98.28;99053.66;4485508;31;20161;-66
2023/03/30 03:20:04;;;;;;;7.90;4.53;;;;;;;5.57;98.67;99050.44;4485160;31;20150;-66
2023/03/30 03:22:31;;;;;;;8.35;4.45;;;;;;;5.54;99.14;99044.56;4485156;31;20430;-66
2023/03/30 03:25:01;;;;;;;10.02;5.05;;;;;;;5.52;99.11;99039.47;4485293;31;20124;-66
2023/03/30 03:27:29;;;;;;;12.88;5.43;;;;;;;5.43;99.19;99040.87;4485456;31;20439;-66
2023/03/30 03:29:57;;;;;;;10.85;5.45;;;;;;;5.30;99.60;99037.44;4485156;32;20519;-66
2023/03/30 03:32:25;;;;;;;11.18;4.72;;;;;;;5.17;100.00;99050.34;4485465;31;20100;-67
2023/03/30 03:34:53;;;;;;;8.63;4.87;;;;;;;5.06;100.00;99040.63;4485267;31;20160;-67
2023/03/30 03:37:20;;;;;;;14.07;5.05;;;;;;;5.10;100.00;99051.62;4485344;31;20497;-66
2023/03/30 03:39:48;;;;;;;12.18;4.97;;;;;;;5.10;100.00;99052.50;4485122;31;20131;-66
2023/03/30 03:42:15;;;;;;;10.00;4.62;;;;;;;5.12;100.00;99050.63;4485363;31;20115;-66
2023/03/30 03:44:44;;;;;;;8.32;4.80;;;;;;;5.09;100.00;99050.00;4483971;32;20458;-67
2023/03/30 03:47:12;;;;;;;10.00;5.22;;;;;;;5.08;100.00;99043.94;4485183;31;20093;-66
2023/03/30 03:49:43;;;;;;;15.25;4.97;;;;;;;5.04;100.00;99042.50;4485216;32;20084;-66
2023/03/30 03:52:10;;;;;;;10.18;4.90;;;;;;;4.93;100.00;99031.91;4485024;31;20092;-66
2023/03/30 03:54:37;;;;;;;11.60;4.97;;;;;;;5.00;100.00;99035.81;4485080;32;20776;-66
2023/03/30 03:57:05;;;;;;;13.02;5.80;;;;;;;4.95;100.00;99030.06;4485397;31;20111;-66
2023/03/30 03:59:33;;;;;;;11.40;5.70;;;;;;;4.98;100.00;99025.53;4484799;31;20121;-66
2023/03/30 04:02:00;;;;;;;21.12;7.40;;;;;;;5.03;100.00;99021.81;4483337;32;20109;-66
2023/03/30 04:04:28;;;;;;;13.48;4.95;;;;;;;5.01;100.00;99019.31;4484823;31;20100;-66
2023/03/30 04:06:55;;;;;;;10.93;5.07;;;;;;;4.99;100.00;99010.75;4485068;31;20096;-66
2023/03/30 04:09:23;;;;;;;10.85;5.22;;;;;;;5.01;100.00;99018.47;4485020;31;20108;-66
2023/03/30 04:11:51;;;;;;;13.85;5.05;;;;;;;4.89;100.00;99012.25;4484748;31;20502;-65
2023/03/30 04:14:19;;;;;;;15.93;6.22;;;;;;;4.96;100.00;99005.75;4484979;31;20141;-65
2023/03/30 04:16:47;;;;;;;10.23;5.80;;;;;;;5.01;100.00;99001.13;4485290;31;20446;-64
2023/03/30 04:19:16;;;;;;;13.85;6.07;;;;;;;4.94;100.00;99005.88;4484799;31;20118;-64
2023/03/30 04:21:46;;;;;;;12.02;5.70;;;;;;;4.92;100.00;99015.53;4484219;31;20108;-65
2023/03/30 04:24:13;;;;;;;13.68;6.03;;;;;;;4.96;99.81;99014.38;4483478;31;20180;-66
2023/03/30 04:26:47;;;;;;;14.00;5.65;;;;;;;5.02;98.76;99007.97;4483714;32;20401;-66
2023/03/30 04:29:16;;;;;;;12.27;5.90;;;;;;;5.10;98.05;99016.13;4483572;31;20114;-66
2023/03/30 04:31:45;;;;;;;14.87;5.82;;;;;;;5.01;98.40;99021.06;4481393;32;20115;-65
2023/03/30 04:34:13;;;;;;;11.23;5.25;;;;;;;5.14;97.99;99024.56;4483436;31;20092;-66
2023/03/30 04:36:43;;;;;;;15.85;6.05;;;;;;;5.22;96.99;99016.28;4483641;31;20093;-66
2023/03/30 04:39:10;;;;;;;13.20;5.15;;;;;;;5.24;96.40;99017.00;4483568;32;20443;-66
2023/03/30 04:41:40;;;;;;;9.88;5.32;;;;;;;5.28;95.67;99013.28;4483339;31;20096;-67
2023/03/30 04:44:09;;;;;;;10.48;4.90;;;;;;;5.26;95.63;99004.78;4483528;31;20131;-65
2023/03/30 04:46:36;;;;;;;14.85;5.53;;;;;;;5.29;94.44;99002.81;4483500;31;20660;-67
2023/03/30 04:49:04;;;;;;;15.27;5.78;;;;;;;5.30;94.29;99006.25;4481413;32;20174;-66
2023/03/30 04:51:34;;;;;;;11.00;5.87;;;;;;;5.39;93.67;99000.47;4482210;31;20123;-67
2023/03/30 04:54:02;;;;;;;10.20;5.80;;;;;;;5.34;92.90;99002.50;4482907;31;20104;-67
2023/03/30 04:56:30;;;;;;;13.32;5.37;;;;;;;5.35;92.48;98993.78;4481069;31;20115;-66
2023/03/30 04:58:57;;;;;;;11.82;5.00;;;;;;;5.41;93.35;98992.56;4481000;31;20104;-66
2023/03/30 05:01:25;;;;;;;10.07;5.28;;;;;;;5.38;92.08;98991.00;4473339;32;20771;-65
2023/03/30 05:03:53;;;;;;;11.63;5.82;;;;;;;5.48;92.43;98991.22;4476309;32;20151;-66
2023/03/30 05:06:21;;;;;;;17.42;6.65;;;;;;;5.66;91.50;98999.59;4473386;31;20118;-66
2023/03/30 05:08:49;;;;;;;11.70;5.70;;;;;;;5.57;92.18;98995.00;4475106;31;20120;-67
2023/03/30 05:11:18;;;;;;;10.38;5.28;;;;;;;5.59;91.74;98995.75;4476065;32;20502;-66
2023/03/30 05:13:46;;;;;;;11.60;5.32;;;;;;;5.69;91.41;98996.78;4474739;32;20108;-67
2023/03/30 05:16:14;;;;;;;11.02;5.60;;;;;;;5.61;91.36;98993.88;4483880;31;20135;-65
2023/03/30 05:18:43;;;;;;;11.65;5.60;;;;;;;5.54;91.57;98983.06;4483140;31;20820;-67
2023/03/30 05:21:11;;;;;;;14.20;6.32;;;;;;;5.58;91.29;98988.88;4482127;31;20092;-67
2023/03/30 05:23:38;;;;;;;12.75;6.30;;;;;;;5.55;90.92;98992.50;4480180;31;20096;-65
2023/03/30 05:26:07;;;;;;;16.52;6.03;;;;;;;5.65;91.48;98995.34;4480703;31;20125;-65
2023/03/30 05:28:35;;;;;;;13.30;6.07;;;;;;;5.67;89.95;98999.50;4481901;31;20126;-65
2023/03/30 05:31:03;;;;;;;15.18;6.30;;;;;;;5.72;89.74;99006.16;4482579;31;20191;-66
2023/03/30 05:33:32;;;;;;;15.57;5.65;;;;;;;5.74;89.53;98999.09;4483405;31;20155;-65
2023/03/30 05:36:00;;;;;;;14.35;6.43;;;;;;;5.82;89.12;98995.06;4478833;31;20122;-66
2023/03/30 05:38:31;;;;;;;13.73;6.22;;;;;;;5.75;89.05;98991.19;4478558;32;20143;-66
2023/03/30 05:40:59;;;;;;;12.07;6.25;;;;;;;5.86;89.10;98988.72;4470417;32;20156;-67
2023/03/30 05:43:27;;;;;;;18.80;6.70;;;;;;;5.82;87.97;98987.25;4481957;32;20358;-66
2023/03/30 05:45:55;;;;;;;12.73;6.60;;;;;;;5.92;88.46;98991.84;4481028;31;20092;-65
2023/03/30 05:48:23;;;;;;;13.00;6.25;;;;;;;6.10;87.91;99001.06;4485490;31;20457;-66
2023/03/30 05:50:53;;;;;;;13.10;6.30;;;;;;;6.20;87.94;99009.91;4485416;32;20434;-67
2023/03/30 05:53:20;;;;;;;14.82;6.28;;;;;;;6.10;86.59;99006.28;4486007;32;20096;-66
2023/03/30 05:55:49;;;;;;;15.80;6.62;;;;;;;6.26;85.22;99000.03;4483432;31;20140;-66
2023/03/30 05:58:16;;;;;;;26.15;6.78;;;;;;;6.60;84.83;98998.56;4475988;31;20093;-66
2023/03/30 06:00:47;;;;;;;21.40;6.35;;;;;;;7.01;84.21;98999.19;4479544;32;20153;-66
2023/03/30 06:03:15;;;;;;;13.80;5.93;;;;;;;7.24;83.85;98998.38;4485868;31;20092;-66
2023/03/30 06:05:43;;;;;;;19.92;6.97;;;;;;;7.44;83.14;98991.72;4481983;31;20099;-66
2023/03/30 06:08:12;;;;;;;19.08;6.15;;;;;;;7.42;79.07;98990.19;4476771;31;20092;-66
2023/03/30 06:10:41;;;;;;;13.27;6.70;;;;;;;7.50;79.62;98990.44;4480667;31;20416;-66
2023/03/30 06:13:09;;;;;;;11.38;6.15;;;;;;;7.35;78.62;98981.16;4470392;31;20467;-66
2023/03/30 06:15:36;;;;;;;13.48;6.50;;;;;;;7.13;80.40;98974.88;4468993;31;20761;-66
2023/03/30 06:18:05;;;;;;;14.38;6.47;;;;;;;7.40;80.46;98974.66;4474452;31;21128;-67
2023/03/30 06:20:33;;;;;;;18.15;7.25;;;;;;;7.12;81.33;98973.22;4468285;32;20116;-66
2023/03/30 06:23:01;;;;;;;16.00;7.12;;;;;;;7.25;80.50;98968.78;4469302;31;21788;-66
2023/03/30 06:25:29;;;;;;;19.60;6.75;;;;;;;7.20;82.05;98963.06;4467814;31;20155;-66
2023/03/30 06:27:57;;;;;;;16.75;7.40;;;;;;;7.17;81.72;98960.69;4468665;31;20131;-67
2023/03/30 06:30:24;;;;;;;12.40;6.62;;;;;;;7.35;80.16;98957.69;4471067;32;20760;-66
2023/03/30 06:32:52;;;;;;;16.52;6.47;;;;;;;7.41;82.25;98957.25;4468996;31;20104;-66
2023/03/30 06:35:20;;;;;;;16.92;6.95;;;;;;;7.44;80.12;98952.62;4471243;31;20139;-66
2023/03/30 06:37:48;;;;;;;16.08;7.35;;;;;;;7.24;80.15;98955.88;4468490;31;20100;-65
2023/03/30 06:40:16;;;;;;;13.15;6.75;;;;;;;7.23;81.21;98954.19;4469266;31;20595;-66
2023/03/30 06:42:44;;;;;;;17.15;7.20;;;;;;;7.28;82.58;98952.94;4471676;32;20139;-65
2023/03/30 06:45:13;;;;;;;22.92;7.22;;;;;;;7.34;80.38;98956.03;4467008;31;20144;-64
2023/03/30 06:47:41;;;;;;;16.58;6.90;;;;;;;7.27;81.19;98953.88;4470147;31;20374;-66
2023/03/30 06:50:08;;;;;;;16.35;6.65;;;;;;;7.35;81.49;98961.12;4470988;31;20145;-66
2023/03/30 06:52:37;;;;;;;21.80;9.02;;;;;;;7.51;82.99;98953.03;4467259;31;20172;-67
2023/03/30 06:55:05;;;;;;;16.75;7.45;;;;;;;7.71;80.24;98950.72;4471401;31;20417;-67
2023/03/30 06:57:32;;;;;;;17.85;7.70;;;;;;;7.74;79.91;98951.31;4467073;31;20556;-66
2023/03/30 07:00:05;;;;;;;15.38;7.22;;;;;;;7.51;81.74;98958.25;4471541;31;20165;-68
2023/03/30 07:02:35;;;;;;;13.52;7.00;;;;;;;7.66;82.36;98973.69;4470625;31;20097;-67
2023/03/30 07:05:05;;;;;;;20.08;7.10;;;;;;;7.76;81.44;98982.50;4473026;31;20123;-67
2023/03/30 07:07:34;;;;;;;12.43;6.75;;;;;;;7.77;82.02;98978.94;4470191;31;20200;-67
2023/03/30 07:10:08;;;;;;;15.98;7.45;;;;;;;7.45;82.97;98996.00;4472212;31;20479;-65
2023/03/30 07:12:36;;;;;;;16.00;6.90;;;;;;;7.33;84.20;98988.22;4471886;31;20088;-67
2023/03/30 07:15:08;;;;;;;16.95;7.07;;;;;;;7.58;83.71;98977.69;4469861;31;20152;-67
2023/03/30 07:17:36;;;;;;;14.27;7.07;;;;;;;7.80;86.58;98974.31;4473673;32;20111;-68
2023/03/30 07:20:05;;;;;;;16.30;6.62;;;;;;;8.03;84.80;98970.94;4465674;32;20508;-69
2023/03/30 07:22:34;;;;;;;18.58;6.32;;;;;;;7.99;83.40;98972.94;4466462;31;20104;-69
2023/03/30 07:25:02;;;;;;;14.35;7.07;;;;;;;8.30;82.79;98983.66;4473295;31;20122;-70
2023/03/30 07:27:30;;;;;;;14.85;6.85;;;;;;;8.57;84.45;98988.59;4468218;31;20100;-70
2023/03/30 07:29:57;;;;;;;16.95;7.60;;;;;;;8.94;81.37;98990.09;4469744;31;20123;-70
2023/03/30 07:32:41;;;;;;;16.58;7.30;;;;;;;8.88;83.25;98981.78;4472557;31;20482;-70
2023/03/30 07:35:09;;;;;;;20.37;7.22;;;;;;;8.54;82.20;98978.38;4469128;31;20163;-69
2023/03/30 07:37:38;;;;;;;14.20;7.78;;;;;;;8.52;84.38;98973.28;4475469;31;20096;-68
2023/03/30 07:40:07;;;;;;;19.65;7.78;;;;;;;9.10;83.49;98976.62;4472104;31;20154;-69
2023/03/30 07:42:36;;;;;;;16.02;7.47;;;;;;;9.15;81.75;98977.09;4469821;31;20821;-69
2023/03/30 07:45:04;;;;;;;24.05;9.05;;;;;;;9.28;81.71;98972.56;4470214;31;20092;-69
2023/03/30 07:47:31;;;;;;;17.30;8.43;;;;;;;9.66;82.00;98976.44;4468163;32;20104;-70
2023/03/30 07:49:59;;;;;;;22.05;9.07;;;;;;;9.72;78.60;98985.56;4468229;32;20100;-70
2023/03/30 07:52:26;;;;;;;21.87;8.02;;;;;;;9.51;79.04;98985.56;4468599;31;20458;-69
2023/03/30 07:54:55;;;;;;;18.73;8.35;;;;;;;9.73;82.49;98988.03;4467162;31;20803;-70
2023/03/30 07:57:22;;;;;;;19.17;8.68;;;;;;;10.12;78.44;98977.00;4467719;31;20179;-69
2023/03/30 07:59:50;;;;;;;17.87;7.85;;;;;;;10.11;77.25;98981.44;4472607;32;20159;-69
2023/03/30 08:02:17;;;;;;;18.77;8.55;;;;;;;10.24;80.73;98981.22;4472420;31;20514;-68
2023/03/30 08:04:45;;;;;;;18.60;8.50;;;;;;;10.02;79.48;98966.50;4470544;31;20181;-70
2023/03/30 08:07:15;;;;;;;23.67;8.88;;;;;;;10.25;77.82;98963.69;4469089;32;20120;-67
2023/03/30 08:09:44;;;;;;;23.52;9.18;;;;;;;10.12;80.47;98963.94;4467803;31;20385;-70
2023/03/30 08:12:12;;;;;;;14.68;8.70;;;;;;;10.45;78.91;98965.50;4470397;32;20115;-70
2023/03/30 08:14:39;;;;;;;20.75;9.40;;;;;;;10.79;75.33;98953.88;4469721;32;20156;-69
2023/03/30 08:17:06;;;;;;;19.10;9.10;;;;;;;10.83;75.14;98958.72;4472204;32;20545;-70
2023/03/30 08:19:34;;;;;;;17.52;8.80;;;;;;;11.03;75.31;98958.78;4476029;31;20153;-69
2023/03/30 08:22:02;;;;;;;17.77;8.60;;;;;;;10.92;73.93;98964.16;4471782;31;20888;-69
2023/03/30 08:24:29;;;;;;;16.37;8.82;;;;;;;11.29;73.97;98966.94;4467407;32;20101;-70
2023/03/30 08:26:56;;;;;;;18.85;8.38;;;;;;;11.21;75.84;98968.59;4471484;32;20155;-68
2023/03/30 08:29:23;;;;;;;22.05;9.55;;;;;;;11.45;76.95;98965.59;4471904;31;20540;-69
2023/03/30 08:31:51;;;;;;;16.10;8.73;;;;;;;11.58;74.63;98960.88;4469118;31;20798;-69
2023/03/30 08:34:19;;;;;;;19.95;9.63;;;;;;;11.44;73.67;98970.00;4469987;31;20105;-69
2023/03/30 08:36:46;;;;;;;21.92;9.82;;;;;;;11.62;72.60;98961.44;4471633;31;20100;-68
2023/03/30 08:39:14;;;;;;;19.70;9.27;;;;;;;11.68;73.41;98961.69;4468348;31;20109;-69
2023/03/30 08:42:07;;;;;;;18.27;8.98;;;;;;;11.98;72.34;98962.53;4469098;32;20131;-70
2023/03/30 08:44:55;;;;;;;19.40;9.52;;;;;;;12.20;72.21;98971.87;4473734;32;20233;-69
2023/03/30 08:47:30;;;;;;;17.55;9.10;;;;;;;12.31;71.97;98973.50;4467812;31;20100;-69
2023/03/30 08:50:14;;;;;;;14.52;8.68;;;;;;;12.67;71.38;98968.41;4455130;32;20093;-69
2023/03/30 08:52:41;;;;;;;19.83;8.98;;;;;;;13.00;69.18;98974.00;4470168;31;20140;-67
2023/03/30 08:55:19;;;;;;;17.37;8.65;;;;;;;13.02;69.21;98965.97;4471096;31;20088;-68
2023/03/30 08:57:57;;;;;;;15.80;8.75;;;;;;;13.36;64.45;98962.75;4468418;31;20151;-68
2023/03/30 09:00:35;;;;;;;17.70;9.07;;;;;;;13.63;67.29;98970.56;4469672;32;20100;-67
2023/03/30 09:03:13;;;;;;;17.10;8.50;;;;;;;13.59;67.53;98956.03;4469598;32;20205;-68
2023/03/30 09:05:59;;;;;;;17.87;9.45;;;;;;;13.69;66.17;98952.47;4468364;31;20137;-66
2023/03/30 09:08:28;;;;;;;13.18;8.00;;;;;;;14.00;67.03;98945.81;4472331;31;20118;-68
2023/03/30 09:10:58;;;;;;;15.50;9.10;;;;;;;13.79;65.36;98947.97;4467692;31;20114;-68
2023/03/30 09:13:32;;;;;;;17.77;8.93;;;;;;;13.52;65.96;98952.38;4467000;31;20162;-67
2023/03/30 09:16:13;;;;;;;15.23;8.55;;;;;;;13.49;66.54;98956.13;4468629;32;20132;-68
2023/03/30 09:18:41;;;;;;;14.55;8.73;;;;;;;13.91;64.37;98946.72;4467848;31;20145;-68
2023/03/30 09:21:11;;;;;;;17.48;8.65;;;;;;;13.93;63.89;98947.41;4468234;31;20161;-68
2023/03/30 09:23:38;;;;;;;16.35;9.68;;;;;;;13.65;66.24;98950.16;4469824;31;20108;-69
2023/03/30 09:26:12;;;;;;;14.48;7.95;;;;;;;14.04;68.08;98941.06;4470574;31;20080;-68
2023/03/30 09:28:52;;;;;;;13.27;8.90;;;;;;;13.01;68.02;98932.78;4471480;31;20092;-68
2023/03/30 09:31:28;;;;;;;15.40;7.93;;;;;;;13.57;68.22;98933.50;4468288;31;20115;-67
2023/03/30 09:34:02;;;;;;;18.02;9.00;;;;;;;13.53;67.01;98932.13;4468978;31;20104;-68
2023/03/30 09:37:09;;;;;;;19.02;9.07;;;;;;;13.68;67.09;98929.78;4467727;31;20132;-68
2023/03/30 09:39:37;;;;;;;16.33;9.20;;;;;;;14.02;63.23;98925.41;4422574;32;20200;-68
2023/03/30 09:42:15;;;;;;;26.40;9.50;;;;;;;14.13;64.54;98919.06;4410548;32;20094;-65
2023/03/30 09:45:04;;;;;;;20.88;10.13;;;;;;;13.15;69.20;98921.72;4409072;32;20160;-69
2023/03/30 09:47:36;;;;;;;18.05;8.98;;;;;;;13.19;68.09;98909.94;4414812;32;20131;-68
2023/03/30 09:50:13;;;;;;;13.82;8.55;;;;;;;13.32;69.95;98901.66;4419401;32;20135;-68
2023/03/30 09:52:40;;;;;;;20.58;9.07;;;;;;;13.65;70.05;98897.50;4421363;32;20464;-67
2023/03/30 09:55:20;;;;;;;16.58;8.50;;;;;;;14.26;67.69;98894.94;4406841;32;20542;-66
2023/03/30 09:57:49;;;;;;;13.50;8.13;;;;;;;14.50;66.88;98896.00;4421435;32;20113;-68
2023/03/30 10:00:31;;;;;;;16.77;8.30;;;;;;;14.72;66.47;98892.81;4424563;32;20197;-68
2023/03/30 10:03:02;;;;;;;16.37;8.45;;;;;;;14.62;63.59;98893.94;4419705;32;20090;-68
2023/03/30 10:05:34;;;;;;;18.73;8.65;;;;;;;14.90;66.11;98892.69;4424941;32;20165;-68
2023/03/30 10:08:05;;;;;;;20.55;9.60;;;;;;;14.16;67.08;98881.03;4412627;32;20230;-69
2023/03/30 10:10:35;;;;;;;16.23;9.43;;;;;;;14.25;66.52;98889.81;4414578;32;20121;-67
2023/03/30 10:13:18;;;;;;;18.25;10.00;;;;;;;13.76;65.03;98883.28;4409259;32;20110;-69
2023/03/30 10:15:51;;;;;;;16.67;9.23;;;;;;;13.60;72.14;98881.34;4428986;32;20804;-68
2023/03/30 10:18:36;;;;;;;20.67;8.98;;;;;;;13.85;68.52;98886.78;4477771;31;20092;-68
2023/03/30 10:21:06;;;;;;;14.98;8.13;;;;;;;13.78;68.28;98883.13;4475850;32;20151;-68
2023/03/30 10:23:40;;;;;;;14.35;7.60;;;;;;;14.27;63.63;98877.28;4477975;31;20092;-68
2023/03/30 10:26:17;;;;;;;12.85;7.57;;;;;;;14.76;65.09;98869.59;4477535;31;20593;-68
2023/03/30 10:28:52;;;;;;;15.48;7.90;;;;;;;14.74;63.94;98868.91;4476350;31;20617;-68
2023/03/30 10:31:20;;;;;;;15.75;7.12;;;;;;;14.72;65.13;98866.44;4481009;31;20092;-67
2023/03/30 10:33:48;;;;;;;14.18;7.50;;;;;;;15.09;63.92;98861.69;4477158;31;20154;-68
2023/03/30 10:36:17;;;;;;;17.23;7.60;;;;;;;14.48;65.70;98847.88;4480977;31;20509;-68
2023/03/30 10:38:45;;;;;;;18.48;7.75;;;;;;;13.95;65.35;98841.91;4483304;31;20104;-68
2023/03/30 10:41:20;;;;;;;15.75;7.68;;;;;;;14.24;69.66;98849.44;4479964;31;20146;-68
2023/03/30 10:43:51;;;;;;;14.77;6.70;;;;;;;15.25;69.37;98839.78;4477433;31;20081;-68
2023/03/30 10:46:21;;;;;;;13.50;7.87;;;;;;;15.41;66.49;98834.50;4477161;31;20108;-69
2023/03/30 10:49:42;;;;;;;14.27;7.57;;;;;;;15.21;60.09;98833.19;4479459;31;20092;-66
2023/03/30 10:52:13;;;;;;;11.23;6.72;;;;;;;14.92;63.05;98834.50;4429215;32;20532;-68
2023/03/30 10:54:48;;;;;;;14.57;8.18;;;;;;;15.35;62.77;98829.03;4432350;32;20113;-67
2023/03/30 10:57:20;;;;;;;8.52;6.32;;;;;;;16.02;62.77;98823.50;4420391;32;20113;-69
2023/03/30 11:00:17;;;;;;;11.88;6.72;;;;;;;16.44;61.75;98829.41;4415981;32;20097;-66
2023/03/30 11:02:55;;;;;;;12.13;6.95;;;;;;;16.53;59.20;98832.84;4415200;32;20136;-68
2023/03/30 11:05:32;;;;;;;14.27;6.85;;;;;;;16.25;58.94;98822.75;4417309;32;20142;-68
2023/03/30 11:08:00;;;;;;;10.50;6.95;;;;;;;16.26;60.36;98835.78;4420350;32;20586;-68
2023/03/30 11:10:39;;;;;;;12.50;7.28;;;;;;;15.97;60.80;98831.09;4433257;32;20163;-67
2023/03/30 11:13:18;;;;;;;11.95;7.10;;;;;;;15.75;59.27;98820.25;4419794;32;20113;-67
2023/03/30 11:15:56;;;;;;;16.27;7.85;;;;;;;15.18;61.23;98822.97;4431131;32;20121;-68
2023/03/30 11:18:36;;;;;;;13.10;7.12;;;;;;;15.11;63.35;98819.31;4419405;32;20213;-68
2023/03/30 11:21:05;;;;;;;9.65;6.50;;;;;;;15.38;63.08;98829.56;4427129;32;20117;-68
2023/03/30 11:23:38;;;;;;;12.73;6.93;;;;;;;15.51;61.55;98815.81;4471451;31;20130;-68
2023/03/30 11:26:36;;;;;;;10.70;6.65;;;;;;;15.92;62.42;98812.28;4480073;31;20093;-68
2023/03/30 11:29:25;;;;;;;11.10;6.80;;;;;;;15.78;60.26;98819.94;4480706;32;20097;-67
2023/03/30 11:31:55;;;;;;;10.40;6.00;;;;;;;15.80;61.71;98803.91;4474701;32;20202;-68
2023/03/30 11:34:45;;;;;;;10.00;6.12;;;;;;;15.94;62.09;98799.72;4475576;31;20122;-68
2023/03/30 11:37:47;;;;;;;10.18;5.37;;;;;;;16.01;62.03;98798.06;4479659;31;20096;-69
2023/03/30 11:40:20;;;;;;;10.05;6.45;;;;;;;16.12;62.12;98802.13;4417219;32;20105;-68
2023/03/30 11:42:49;;;;;;;11.57;6.10;;;;;;;16.17;62.45;98810.38;4406052;32;20494;-69
2023/03/30 11:45:32;;;;;;;10.05;6.65;;;;;;;16.12;61.87;98804.78;4410651;32;20109;-68
2023/03/30 11:48:20;;;;;;;11.67;6.40;;;;;;;15.97;63.04;98807.31;4416908;32;20085;-69
2023/03/30 11:50:57;;;;;;;8.93;5.80;;;;;;;16.02;60.06;98794.44;4419276;32;20133;-69
2023/03/30 11:53:43;;;;;;;8.93;6.37;;;;;;;16.33;63.89;98788.31;4405352;32;20114;-70
2023/03/30 11:56:35;;;;;;;9.18;6.32;;;;;;;16.71;62.78;98775.19;4415670;32;20097;-69